sensor_id;sensor_type;location;lat;lon;timestamp;pressure;altitude;pressure_sealevel;temperature;humidity
27729;BME280;15126;42.186;24.340;2023-03-19T00:01:48;99929.34;;;4.29;67.45
27729;BME280;15126;42.186;24.340;2023-03-19T00:04:15;99923.97;;;4.10;68.01
27729;BME280;15126;42.186;24.340;2023-03-19T00:06:42;99933.59;;;4.23;67.56
27729;BME280;15126;42.186;24.340;2023-03-19T00:09:09;99929.19;;;4.18;68.38
27729;BME280;15126;42.186;24.340;2023-03-19T00:11:36;99933.59;;;4.23;67.68
27729;BME280;15126;42.186;24.340;2023-03-19T00:14:03;99929.56;;;4.17;67.17
27729;BME280;15126;42.186;24.340;2023-03-19T00:16:32;99928.28;;;4.11;68.17
27729;BME280;15126;42.186;24.340;2023-03-19T00:18:59;99911.81;;;3.88;68.26
27729;BME280;15126;42.186;24.340;2023-03-19T00:21:27;99923.50;;;4.08;68.48
27729;BME280;15126;42.186;24.340;2023-03-19T00:23:54;99925.50;;;4.07;68.65
27729;BME280;15126;42.186;24.340;2023-03-19T00:26:25;99930.06;;;3.96;69.12
27729;BME280;15126;42.186;24.340;2023-03-19T00:28:52;99920.28;;;4.02;68.19
27729;BME280;15126;42.186;24.340;2023-03-19T00:31:19;99918.28;;;3.99;69.14
27729;BME280;15126;42.186;24.340;2023-03-19T00:33:47;99900.94;;;3.99;68.27
27729;BME280;15126;42.186;24.340;2023-03-19T00:36:14;99919.13;;;4.03;68.67
27729;BME280;15126;42.186;24.340;2023-03-19T00:38:41;99918.31;;;4.03;68.69
27729;BME280;15126;42.186;24.340;2023-03-19T00:41:09;99906.47;;;4.02;68.81
27729;BME280;15126;42.186;24.340;2023-03-19T00:43:36;99890.50;;;3.89;68.62
27729;BME280;15126;42.186;24.340;2023-03-19T00:46:03;99902.50;;;4.00;68.56
27729;BME280;15126;42.186;24.340;2023-03-19T00:48:31;99898.38;;;3.87;69.07
27729;BME280;15126;42.186;24.340;2023-03-19T00:51:02;99893.59;;;3.84;69.52
27729;BME280;15126;42.186;24.340;2023-03-19T00:53:30;99892.69;;;3.76;68.84
27729;BME280;15126;42.186;24.340;2023-03-19T00:55:57;99892.53;;;3.66;70.06
27729;BME280;15126;42.186;24.340;2023-03-19T00:58:24;99861.56;;;3.49;70.45
27729;BME280;15126;42.186;24.340;2023-03-19T01:00:51;99878.16;;;3.53;69.56
27729;BME280;15126;42.186;24.340;2023-03-19T01:03:18;99879.38;;;3.55;69.85
27729;BME280;15126;42.186;24.340;2023-03-19T01:05:46;99875.09;;;3.58;69.27
27729;BME280;15126;42.186;24.340;2023-03-19T01:08:15;99871.72;;;3.45;71.11
27729;BME280;15126;42.186;24.340;2023-03-19T01:10:43;99862.19;;;3.39;69.67
27729;BME280;15126;42.186;24.340;2023-03-19T01:13:10;99863.75;;;3.40;69.95
27729;BME280;15126;42.186;24.340;2023-03-19T01:15:41;99869.91;;;3.30;70.99
27729;BME280;15126;42.186;24.340;2023-03-19T01:18:09;99869.16;;;3.33;69.83
27729;BME280;15126;42.186;24.340;2023-03-19T01:20:38;99858.78;;;3.23;70.53
27729;BME280;15126;42.186;24.340;2023-03-19T01:23:06;99858.00;;;3.26;71.17
27729;BME280;15126;42.186;24.340;2023-03-19T01:25:34;99854.03;;;3.24;70.86
27729;BME280;15126;42.186;24.340;2023-03-19T01:28:01;99861.81;;;3.18;71.00
27729;BME280;15126;42.186;24.340;2023-03-19T01:30:28;99872.78;;;3.15;70.56
27729;BME280;15126;42.186;24.340;2023-03-19T01:32:55;99861.94;;;3.03;70.19
27729;BME280;15126;42.186;24.340;2023-03-19T01:35:22;99866.91;;;2.93;71.06
27729;BME280;15126;42.186;24.340;2023-03-19T01:37:49;99870.19;;;3.03;71.32
27729;BME280;15126;42.186;24.340;2023-03-19T01:40:16;99868.56;;;2.98;71.93
27729;BME280;15126;42.186;24.340;2023-03-19T01:42:52;99870.09;;;2.95;72.13
27729;BME280;15126;42.186;24.340;2023-03-19T01:45:33;99866.38;;;3.07;71.97
27729;BME280;15126;42.186;24.340;2023-03-19T01:48:00;99851.00;;;3.06;70.38
27729;BME280;15126;42.186;24.340;2023-03-19T01:50:32;99868.44;;;3.14;70.38
27729;BME280;15126;42.186;24.340;2023-03-19T01:53:01;99852.03;;;2.98;70.66
27729;BME280;15126;42.186;24.340;2023-03-19T01:55:28;99873.59;;;3.15;70.05
27729;BME280;15126;42.186;24.340;2023-03-19T01:57:56;99861.03;;;3.18;71.00
27729;BME280;15126;42.186;24.340;2023-03-19T02:00:23;99871.91;;;3.11;71.47
27729;BME280;15126;42.186;24.340;2023-03-19T02:02:52;99876.47;;;3.22;69.80
27729;BME280;15126;42.186;24.340;2023-03-19T02:05:19;99876.47;;;3.22;69.62
27729;BME280;15126;42.186;24.340;2023-03-19T02:07:51;99873.78;;;3.26;70.24
27729;BME280;15126;42.186;24.340;2023-03-19T02:10:20;99888.03;;;3.31;69.42
27729;BME280;15126;42.186;24.340;2023-03-19T02:12:48;99878.25;;;3.34;69.25
27729;BME280;15126;42.186;24.340;2023-03-19T02:15:16;99872.97;;;3.25;69.86
27729;BME280;15126;42.186;24.340;2023-03-19T02:17:43;99886.00;;;3.28;70.53
27729;BME280;15126;42.186;24.340;2023-03-19T02:20:16;99885.63;;;3.30;70.49
27729;BME280;15126;42.186;24.340;2023-03-19T02:22:50;99889.94;;;3.27;70.37
27729;BME280;15126;42.186;24.340;2023-03-19T02:25:25;99884.00;;;3.25;70.19
27729;BME280;15126;42.186;24.340;2023-03-19T02:27:55;99880.69;;;3.16;70.71
27729;BME280;15126;42.186;24.340;2023-03-19T02:30:31;99878.34;;;3.18;70.81
27729;BME280;15126;42.186;24.340;2023-03-19T02:32:58;99876.47;;;3.22;70.60
27729;BME280;15126;42.186;24.340;2023-03-19T02:35:26;99886.53;;;3.37;69.69
27729;BME280;15126;42.186;24.340;2023-03-19T02:37:55;99884.59;;;3.38;70.37
27729;BME280;15126;42.186;24.340;2023-03-19T02:40:24;99883.84;;;3.41;70.40
27729;BME280;15126;42.186;24.340;2023-03-19T02:42:52;99881.91;;;3.41;69.74
27729;BME280;15126;42.186;24.340;2023-03-19T02:45:20;99884.75;;;3.48;68.98
27729;BME280;15126;42.186;24.340;2023-03-19T02:47:48;99886.69;;;3.44;68.16
27729;BME280;15126;42.186;24.340;2023-03-19T02:50:15;99876.31;;;3.38;68.16
27729;BME280;15126;42.186;24.340;2023-03-19T02:52:42;99885.22;;;3.50;67.69
27729;BME280;15126;42.186;24.340;2023-03-19T02:55:09;99880.44;;;3.47;68.82
27729;BME280;15126;42.186;24.340;2023-03-19T02:57:35;99884.41;;;3.50;68.31
27729;BME280;15126;42.186;24.340;2023-03-19T03:00:03;99880.44;;;3.47;68.50
27729;BME280;15126;42.186;24.340;2023-03-19T03:02:32;99886.28;;;3.46;68.91
27729;BME280;15126;42.186;24.340;2023-03-19T03:04:58;99894.22;;;3.47;68.58
27729;BME280;15126;42.186;24.340;2023-03-19T03:07:25;99890.03;;;3.34;67.69
27729;BME280;15126;42.186;24.340;2023-03-19T03:09:52;99886.25;;;3.42;68.42
27729;BME280;15126;42.186;24.340;2023-03-19T03:12:19;99888.94;;;3.39;69.23
27729;BME280;15126;42.186;24.340;2023-03-19T03:14:45;99884.59;;;3.38;68.98
27729;BME280;15126;42.186;24.340;2023-03-19T03:17:12;99890.03;;;3.34;68.78
27729;BME280;15126;42.186;24.340;2023-03-19T03:19:41;99887.66;;;3.33;68.20
27729;BME280;15126;42.186;24.340;2023-03-19T03:22:08;99892.69;;;3.27;69.55
27729;BME280;15126;42.186;24.340;2023-03-19T03:24:35;99896.59;;;3.26;69.11
27729;BME280;15126;42.186;24.340;2023-03-19T03:27:03;99893.84;;;3.26;69.60
27729;BME280;15126;42.186;24.340;2023-03-19T03:29:31;99898.78;;;3.40;68.27
27729;BME280;15126;42.186;24.340;2023-03-19T03:31:57;99883.31;;;3.32;67.58
27729;BME280;15126;42.186;24.340;2023-03-19T03:34:25;99897.56;;;3.37;67.99
27729;BME280;15126;42.186;24.340;2023-03-19T03:36:53;99908.72;;;3.44;68.50
27729;BME280;15126;42.186;24.340;2023-03-19T03:39:20;99905.41;;;3.35;69.48
27729;BME280;15126;42.186;24.340;2023-03-19T03:41:47;99899.91;;;3.35;69.34
27729;BME280;15126;42.186;24.340;2023-03-19T03:44:14;99897.34;;;3.23;69.52
27729;BME280;15126;42.186;24.340;2023-03-19T03:46:41;99912.34;;;3.26;70.60
27729;BME280;15126;42.186;24.340;2023-03-19T03:49:08;99914.72;;;3.27;70.89
27729;BME280;15126;42.186;24.340;2023-03-19T03:51:35;99917.88;;;3.26;70.54
27729;BME280;15126;42.186;24.340;2023-03-19T03:54:03;99922.16;;;3.23;69.55
27729;BME280;15126;42.186;24.340;2023-03-19T03:56:30;99929.66;;;3.26;68.78
27729;BME280;15126;42.186;24.340;2023-03-19T03:58:57;99930.41;;;3.23;68.61
27729;BME280;15126;42.186;24.340;2023-03-19T04:01:25;99924.75;;;3.16;69.36
27729;BME280;15126;42.186;24.340;2023-03-19T04:03:53;99930.28;;;3.16;69.64
27729;BME280;15126;42.186;24.340;2023-03-19T04:06:21;99913.84;;;3.00;69.30
27729;BME280;15126;42.186;24.340;2023-03-19T04:08:48;99929.78;;;3.11;69.05
27729;BME280;15126;42.186;24.340;2023-03-19T04:11:16;99920.88;;;2.98;69.70
27729;BME280;15126;42.186;24.340;2023-03-19T04:13:43;99942.63;;;3.03;69.90
27729;BME280;15126;42.186;24.340;2023-03-19T04:16:10;99948.94;;;3.04;69.49
27729;BME280;15126;42.186;24.340;2023-03-19T04:18:37;99939.38;;;2.97;69.61
27729;BME280;15126;42.186;24.340;2023-03-19T04:21:04;99944.09;;;2.97;69.50
27729;BME280;15126;42.186;24.340;2023-03-19T04:23:32;99944.09;;;2.97;69.94
27729;BME280;15126;42.186;24.340;2023-03-19T04:25:59;99946.78;;;2.93;69.86
27729;BME280;15126;42.186;24.340;2023-03-19T04:28:28;99936.50;;;2.90;70.30
27729;BME280;15126;42.186;24.340;2023-03-19T04:30:58;99945.53;;;2.91;69.93
27729;BME280;15126;42.186;24.340;2023-03-19T04:33:25;99954.16;;;2.89;69.96
27729;BME280;15126;42.186;24.340;2023-03-19T04:35:52;99962.72;;;2.84;70.37
27729;BME280;15126;42.186;24.340;2023-03-19T04:38:19;99936.81;;;2.66;70.53
27729;BME280;15126;42.186;24.340;2023-03-19T04:40:46;99965.31;;;2.77;70.55
27729;BME280;15126;42.186;24.340;2023-03-19T04:43:13;99947.34;;;2.64;70.42
27729;BME280;15126;42.186;24.340;2023-03-19T04:45:41;99962.84;;;2.72;70.08
27729;BME280;15126;42.186;24.340;2023-03-19T04:48:08;99964.09;;;2.75;70.51
27729;BME280;15126;42.186;24.340;2023-03-19T04:50:35;99959.25;;;2.68;70.46
27729;BME280;15126;42.186;24.340;2023-03-19T04:53:02;99962.56;;;2.77;71.28
27729;BME280;15126;42.186;24.340;2023-03-19T04:55:29;99968.06;;;2.77;71.38
27729;BME280;15126;42.186;24.340;2023-03-19T04:57:56;99974.38;;;2.78;70.78
27729;BME280;15126;42.186;24.340;2023-03-19T05:00:23;99972.50;;;2.82;70.96
27729;BME280;15126;42.186;24.340;2023-03-19T05:02:51;99977.31;;;2.85;71.31
27729;BME280;15126;42.186;24.340;2023-03-19T05:05:18;99965.47;;;2.84;71.92
27729;BME280;15126;42.186;24.340;2023-03-19T05:07:45;99956.34;;;2.80;72.25
27729;BME280;15126;42.186;24.340;2023-03-19T05:10:12;99969.25;;;2.95;71.21
27729;BME280;15126;42.186;24.340;2023-03-19T05:12:39;99975.69;;;3.03;71.01
27729;BME280;15126;42.186;24.340;2023-03-19T05:15:07;99979.38;;;3.11;71.13
27729;BME280;15126;42.186;24.340;2023-03-19T05:17:34;99982.31;;;3.21;71.05
27729;BME280;15126;42.186;24.340;2023-03-19T05:20:03;99979.41;;;3.33;70.73
27729;BME280;15126;42.186;24.340;2023-03-19T05:22:30;99986.72;;;3.45;69.78
27729;BME280;15126;42.186;24.340;2023-03-19T05:24:57;99969.38;;;3.44;69.73
27729;BME280;15126;42.186;24.340;2023-03-19T05:27:24;99954.41;;;3.45;69.25
27729;BME280;15126;42.186;24.340;2023-03-19T05:29:51;99973.78;;;3.72;70.94
27729;BME280;15126;42.186;24.340;2023-03-19T05:32:18;99978.69;;;3.82;69.55
27729;BME280;15126;42.186;24.340;2023-03-19T05:34:45;99979.25;;;3.91;69.80
27729;BME280;15126;42.186;24.340;2023-03-19T05:37:14;99988.91;;;4.04;69.69
27729;BME280;15126;42.186;24.340;2023-03-19T05:39:41;99987.09;;;4.15;68.50
27729;BME280;15126;42.186;24.340;2023-03-19T05:42:08;99975.41;;;4.25;66.82
27729;BME280;15126;42.186;24.340;2023-03-19T05:44:35;99970.91;;;4.40;66.53
27729;BME280;15126;42.186;24.340;2023-03-19T05:47:02;99985.81;;;4.61;66.00
27729;BME280;15126;42.186;24.340;2023-03-19T05:49:29;99991.66;;;4.56;66.94
27729;BME280;15126;42.186;24.340;2023-03-19T05:51:56;99986.31;;;4.70;65.83
27729;BME280;15126;42.186;24.340;2023-03-19T05:54:24;99974.38;;;4.63;66.24
27729;BME280;15126;42.186;24.340;2023-03-19T05:56:51;99992.88;;;4.89;66.66
27729;BME280;15126;42.186;24.340;2023-03-19T05:59:18;99983.22;;;5.09;64.92
27729;BME280;15126;42.186;24.340;2023-03-19T06:01:45;100001.53;;;5.20;64.65
27729;BME280;15126;42.186;24.340;2023-03-19T06:04:12;99991.81;;;5.33;64.59
27729;BME280;15126;42.186;24.340;2023-03-19T06:06:38;99995.13;;;5.46;65.09
27729;BME280;15126;42.186;24.340;2023-03-19T06:09:05;99988.13;;;5.59;64.70
27729;BME280;15126;42.186;24.340;2023-03-19T06:11:34;99971.53;;;5.59;63.83
27729;BME280;15126;42.186;24.340;2023-03-19T06:14:04;99982.50;;;5.92;62.98
27729;BME280;15126;42.186;24.340;2023-03-19T06:16:31;99982.34;;;6.19;61.42
27729;BME280;15126;42.186;24.340;2023-03-19T06:18:58;99984.06;;;6.41;62.82
27729;BME280;15126;42.186;24.340;2023-03-19T06:21:25;99982.22;;;6.66;62.42
27729;BME280;15126;42.186;24.340;2023-03-19T06:23:54;99979.16;;;6.85;62.11
27729;BME280;15126;42.186;24.340;2023-03-19T06:26:21;99977.28;;;7.10;60.72
27729;BME280;15126;42.186;24.340;2023-03-19T06:28:49;99969.78;;;7.29;59.87
27729;BME280;15126;42.186;24.340;2023-03-19T06:31:16;99987.31;;;7.57;58.84
27729;BME280;15126;42.186;24.340;2023-03-19T06:33:42;99986.91;;;7.69;56.70
27729;BME280;15126;42.186;24.340;2023-03-19T06:36:09;99991.31;;;7.85;58.05
27729;BME280;15126;42.186;24.340;2023-03-19T06:38:36;99997.28;;;8.04;57.03
27729;BME280;15126;42.186;24.340;2023-03-19T06:41:03;99982.97;;;8.16;56.39
27729;BME280;15126;42.186;24.340;2023-03-19T06:43:30;99984.56;;;8.38;57.15
27729;BME280;15126;42.186;24.340;2023-03-19T06:46:03;99981.78;;;8.53;56.90
27729;BME280;15126;42.186;24.340;2023-03-19T06:48:31;99981.75;;;8.67;55.40
27729;BME280;15126;42.186;24.340;2023-03-19T06:50:58;99974.13;;;8.78;56.25
27729;BME280;15126;42.186;24.340;2023-03-19T06:53:25;99978.47;;;8.93;55.78
27729;BME280;15126;42.186;24.340;2023-03-19T06:55:53;99972.81;;;9.18;55.37
27729;BME280;15126;42.186;24.340;2023-03-19T06:58:20;99975.91;;;9.30;55.06
27729;BME280;15126;42.186;24.340;2023-03-19T07:00:47;99980.22;;;9.42;53.96
27729;BME280;15126;42.186;24.340;2023-03-19T07:03:15;99961.56;;;9.35;55.38
27729;BME280;15126;42.186;24.340;2023-03-19T07:05:42;99964.63;;;9.55;54.00
27729;BME280;15126;42.186;24.340;2023-03-19T07:08:09;99966.53;;;9.65;54.85
27729;BME280;15126;42.186;24.340;2023-03-19T07:10:37;99943.91;;;9.59;54.24
27729;BME280;15126;42.186;24.340;2023-03-19T07:13:04;99964.28;;;10.01;54.41
27729;BME280;15126;42.186;24.340;2023-03-19T07:15:31;99955.38;;;10.20;53.22
27729;BME280;15126;42.186;24.340;2023-03-19T07:17:58;99945.63;;;10.39;53.69
27729;BME280;15126;42.186;24.340;2023-03-19T07:20:26;99941.16;;;10.48;48.98
27729;BME280;15126;42.186;24.340;2023-03-19T07:22:53;99935.38;;;10.66;47.96
27729;BME280;15126;42.186;24.340;2023-03-19T07:25:20;99936.81;;;10.81;47.31
27729;BME280;15126;42.186;24.340;2023-03-19T07:27:47;99933.31;;;11.04;48.90
27729;BME280;15126;42.186;24.340;2023-03-19T07:30:15;99929.97;;;11.16;48.18
27729;BME280;15126;42.186;24.340;2023-03-19T07:32:41;99927.19;;;11.16;46.33
27729;BME280;15126;42.186;24.340;2023-03-19T07:35:09;99924.22;;;11.30;47.29
27729;BME280;15126;42.186;24.340;2023-03-19T07:37:37;99930.84;;;11.40;48.04
27729;BME280;15126;42.186;24.340;2023-03-19T07:40:05;99933.31;;;11.61;46.94
27729;BME280;15126;42.186;24.340;2023-03-19T07:42:32;99928.38;;;11.72;46.99
27729;BME280;15126;42.186;24.340;2023-03-19T07:45:01;99929.91;;;11.76;48.56
27729;BME280;15126;42.186;24.340;2023-03-19T07:47:28;99930.28;;;11.78;47.44
27729;BME280;15126;42.186;24.340;2023-03-19T07:49:55;99927.56;;;11.98;47.76
27729;BME280;15126;42.186;24.340;2023-03-19T07:52:22;99918.00;;;12.19;48.30
27729;BME280;15126;42.186;24.340;2023-03-19T07:54:50;99897.41;;;12.09;47.72
27729;BME280;15126;42.186;24.340;2023-03-19T07:57:17;99917.50;;;12.47;43.59
27729;BME280;15126;42.186;24.340;2023-03-19T07:59:45;99916.84;;;12.59;44.04
27729;BME280;15126;42.186;24.340;2023-03-19T08:02:12;99909.81;;;12.71;44.41
27729;BME280;15126;42.186;24.340;2023-03-19T08:04:39;99913.81;;;12.89;46.65
27729;BME280;15126;42.186;24.340;2023-03-19T08:07:07;99911.94;;;13.02;46.55
27729;BME280;15126;42.186;24.340;2023-03-19T08:09:35;99915.34;;;13.13;45.99
27729;BME280;15126;42.186;24.340;2023-03-19T08:12:04;99914.09;;;13.34;45.90
27729;BME280;15126;42.186;24.340;2023-03-19T08:14:31;99918.41;;;13.55;41.96
27729;BME280;15126;42.186;24.340;2023-03-19T08:16:58;99909.66;;;13.69;39.75
27729;BME280;15126;42.186;24.340;2023-03-19T08:19:25;99917.22;;;13.72;44.30
27729;BME280;15126;42.186;24.340;2023-03-19T08:21:52;99911.34;;;13.83;41.68
27729;BME280;15126;42.186;24.340;2023-03-19T08:24:19;99916.41;;;14.04;42.39
27729;BME280;15126;42.186;24.340;2023-03-19T08:26:45;99923.94;;;14.23;41.19
27729;BME280;15126;42.186;24.340;2023-03-19T08:29:14;99920.66;;;14.41;42.18
27729;BME280;15126;42.186;24.340;2023-03-19T08:31:40;99917.13;;;14.53;38.96
27729;BME280;15126;42.186;24.340;2023-03-19T08:34:08;99912.69;;;14.68;39.90
27729;BME280;15126;42.186;24.340;2023-03-19T08:36:35;99874.91;;;14.27;40.26
27729;BME280;15126;42.186;24.340;2023-03-19T08:39:03;99910.72;;;14.52;38.86
27729;BME280;15126;42.186;24.340;2023-03-19T08:41:29;99905.22;;;14.49;37.33
27729;BME280;15126;42.186;24.340;2023-03-19T08:43:56;99899.06;;;14.54;35.58
27729;BME280;15126;42.186;24.340;2023-03-19T08:46:25;99901.13;;;14.66;38.62
27729;BME280;15126;42.186;24.340;2023-03-19T08:48:53;99902.72;;;14.67;38.61
27729;BME280;15126;42.186;24.340;2023-03-19T08:51:21;99902.84;;;14.76;36.82
27729;BME280;15126;42.186;24.340;2023-03-19T08:53:49;99895.03;;;14.83;40.25
27729;BME280;15126;42.186;24.340;2023-03-19T08:56:15;99896.63;;;14.97;37.39
27729;BME280;15126;42.186;24.340;2023-03-19T08:58:42;99894.50;;;15.14;40.35
27729;BME280;15126;42.186;24.340;2023-03-19T09:01:11;99887.22;;;15.16;35.78
27729;BME280;15126;42.186;24.340;2023-03-19T09:03:41;99889.09;;;15.19;37.03
27729;BME280;15126;42.186;24.340;2023-03-19T09:06:10;99872.38;;;15.28;39.28
27729;BME280;15126;42.186;24.340;2023-03-19T09:08:39;99871.47;;;15.31;37.95
27729;BME280;15126;42.186;24.340;2023-03-19T09:11:06;99878.47;;;15.52;40.23
27729;BME280;15126;42.186;24.340;2023-03-19T09:13:33;99858.56;;;15.46;36.65
27729;BME280;15126;42.186;24.340;2023-03-19T09:16:00;99839.00;;;15.43;38.33
27729;BME280;15126;42.186;24.340;2023-03-19T09:18:27;99870.91;;;15.74;39.07
27729;BME280;15126;42.186;24.340;2023-03-19T09:20:55;99854.41;;;15.64;37.51
27729;BME280;15126;42.186;24.340;2023-03-19T09:23:22;99868.91;;;15.75;38.26
27729;BME280;15126;42.186;24.340;2023-03-19T09:25:49;99860.78;;;15.77;39.85
27729;BME280;15126;42.186;24.340;2023-03-19T09:28:16;99849.16;;;15.87;37.97
27729;BME280;15126;42.186;24.340;2023-03-19T09:30:44;99862.66;;;16.05;36.06
27729;BME280;15126;42.186;24.340;2023-03-19T09:33:11;99853.53;;;16.01;34.90
27729;BME280;15126;42.186;24.340;2023-03-19T09:35:38;99845.09;;;16.01;34.78
27729;BME280;15126;42.186;24.340;2023-03-19T09:38:06;99841.41;;;15.91;35.73
27729;BME280;15126;42.186;24.340;2023-03-19T09:40:35;99828.94;;;15.92;37.86
27729;BME280;15126;42.186;24.340;2023-03-19T09:43:16;99834.41;;;16.08;37.38
27729;BME280;15126;42.186;24.340;2023-03-19T09:45:46;99815.81;;;16.11;37.28
27729;BME280;15126;42.186;24.340;2023-03-19T09:48:17;99820.59;;;16.23;37.34
27729;BME280;15126;42.186;24.340;2023-03-19T09:50:47;99814.81;;;16.05;35.78
27729;BME280;15126;42.186;24.340;2023-03-19T09:53:21;99810.22;;;15.98;35.75
27729;BME280;15126;42.186;24.340;2023-03-19T09:55:51;99805.66;;;16.14;38.09
27729;BME280;15126;42.186;24.340;2023-03-19T09:58:20;99807.56;;;16.17;36.19
27729;BME280;15126;42.186;24.340;2023-03-19T10:00:49;99798.28;;;16.29;35.01
27729;BME280;15126;42.186;24.340;2023-03-19T10:03:30;99800.47;;;16.12;36.56
27729;BME280;15126;42.186;24.340;2023-03-19T10:06:07;99797.94;;;16.05;36.87
27729;BME280;15126;42.186;24.340;2023-03-19T10:08:52;99789.75;;;15.98;37.55
27729;BME280;15126;42.186;24.340;2023-03-19T10:11:31;99793.88;;;16.06;40.56
27729;BME280;15126;42.186;24.340;2023-03-19T10:14:11;99794.25;;;16.17;39.60
27729;BME280;15126;42.186;24.340;2023-03-19T10:16:43;99783.34;;;16.19;38.20
27729;BME280;15126;42.186;24.340;2023-03-19T10:19:15;99784.25;;;16.16;38.81
27729;BME280;15126;42.186;24.340;2023-03-19T10:21:46;99782.16;;;16.29;38.71
27729;BME280;15126;42.186;24.340;2023-03-19T10:24:21;99776.41;;;16.33;38.04
27729;BME280;15126;42.186;24.340;2023-03-19T10:26:50;99766.66;;;16.46;38.50
27729;BME280;15126;42.186;24.340;2023-03-19T10:29:23;99765.50;;;16.56;41.22
27729;BME280;15126;42.186;24.340;2023-03-19T10:31:52;99759.63;;;16.73;39.23
27729;BME280;15126;42.186;24.340;2023-03-19T10:34:28;99761.41;;;16.79;37.76
27729;BME280;15126;42.186;24.340;2023-03-19T10:36:58;99740.00;;;16.91;36.17
27729;BME280;15126;42.186;24.340;2023-03-19T10:39:27;99751.25;;;16.91;37.10
27729;BME280;15126;42.186;24.340;2023-03-19T10:42:02;99750.19;;;16.97;37.83
27729;BME280;15126;42.186;24.340;2023-03-19T10:44:34;99750.38;;;17.03;38.45
27729;BME280;15126;42.186;24.340;2023-03-19T10:47:09;99746.78;;;17.02;38.95
27729;BME280;15126;42.186;24.340;2023-03-19T10:49:36;99734.88;;;17.07;39.01
27729;BME280;15126;42.186;24.340;2023-03-19T10:52:04;99729.47;;;17.22;37.85
27729;BME280;15126;42.186;24.340;2023-03-19T10:54:32;99721.63;;;17.26;38.79
27729;BME280;15126;42.186;24.340;2023-03-19T10:57:20;99721.50;;;17.39;38.33
27729;BME280;15126;42.186;24.340;2023-03-19T10:59:48;99709.75;;;17.31;36.59
27729;BME280;15126;42.186;24.340;2023-03-19T11:02:16;99701.91;;;17.35;37.76
27729;BME280;15126;42.186;24.340;2023-03-19T11:04:44;99702.56;;;17.48;36.28
27729;BME280;15126;42.186;24.340;2023-03-19T11:07:13;99704.44;;;17.51;37.26
27729;BME280;15126;42.186;24.340;2023-03-19T11:09:45;99685.34;;;17.46;36.15
27729;BME280;15126;42.186;24.340;2023-03-19T11:12:17;99695.38;;;17.47;39.74
27729;BME280;15126;42.186;24.340;2023-03-19T11:14:46;99687.53;;;17.51;37.18
27729;BME280;15126;42.186;24.340;2023-03-19T11:17:20;99686.94;;;17.65;37.69
27729;BME280;15126;42.186;24.340;2023-03-19T11:19:49;99689.13;;;17.70;36.58
27729;BME280;15126;42.186;24.340;2023-03-19T11:22:21;99671.56;;;17.75;36.26
27729;BME280;15126;42.186;24.340;2023-03-19T11:24:52;99670.94;;;17.80;37.34
27729;BME280;15126;42.186;24.340;2023-03-19T11:27:26;99671.44;;;17.88;39.07
27729;BME280;15126;42.186;24.340;2023-03-19T11:29:54;99652.44;;;17.89;37.50
27729;BME280;15126;42.186;24.340;2023-03-19T11:35:14;99645.38;;;17.75;36.11
27729;BME280;15126;42.186;24.340;2023-03-19T11:37:52;99653.81;;;18.02;37.63
27729;BME280;15126;42.186;24.340;2023-03-19T11:40:28;99643.78;;;18.10;36.92
27729;BME280;15126;42.186;24.340;2023-03-19T11:46:08;99631.81;;;18.24;36.78
27729;BME280;15126;42.186;24.340;2023-03-19T11:48:54;99624.44;;;18.27;36.76
27729;BME280;15126;42.186;24.340;2023-03-19T11:51:34;99626.00;;;18.28;36.37
27729;BME280;15126;42.186;24.340;2023-03-19T11:54:05;99625.22;;;18.27;37.37
27729;BME280;15126;42.186;24.340;2023-03-19T11:56:41;99623.03;;;18.22;36.58
27729;BME280;15126;42.186;24.340;2023-03-19T11:59:16;99605.28;;;18.31;38.43
27729;BME280;15126;42.186;24.340;2023-03-19T12:02:07;99609.59;;;18.08;35.66
27729;BME280;15126;42.186;24.340;2023-03-19T12:04:56;99612.56;;;18.05;36.38
27729;BME280;15126;42.186;24.340;2023-03-19T12:07:30;99612.41;;;18.08;36.67
27729;BME280;15126;42.186;24.340;2023-03-19T12:10:19;99602.84;;;18.15;35.94
27729;BME280;15126;42.186;24.340;2023-03-19T12:12:56;99597.19;;;18.15;35.60
27729;BME280;15126;42.186;24.340;2023-03-19T12:15:35;99592.28;;;18.24;37.14
27729;BME280;15126;42.186;24.340;2023-03-19T12:18:12;99600.09;;;18.38;37.48
27729;BME280;15126;42.186;24.340;2023-03-19T12:20:50;99581.41;;;18.41;35.65
27729;BME280;15126;42.186;24.340;2023-03-19T12:23:34;99599.59;;;18.49;36.51
27729;BME280;15126;42.186;24.340;2023-03-19T12:26:07;99589.81;;;18.59;34.92
27729;BME280;15126;42.186;24.340;2023-03-19T12:28:40;99578.22;;;18.57;34.99
27729;BME280;15126;42.186;24.340;2023-03-19T12:31:29;99590.00;;;18.56;34.95
27729;BME280;15126;42.186;24.340;2023-03-19T12:34:11;99580.13;;;18.51;35.63
27729;BME280;15126;42.186;24.340;2023-03-19T12:36:48;99573.53;;;18.45;36.54
27729;BME280;15126;42.186;24.340;2023-03-19T12:39:17;99589.81;;;18.59;34.71
27729;BME280;15126;42.186;24.340;2023-03-19T12:41:46;99575.06;;;18.64;35.33
27729;BME280;15126;42.186;24.340;2023-03-19T12:44:18;99581.53;;;18.56;35.08
27729;BME280;15126;42.186;24.340;2023-03-19T12:46:52;99577.81;;;18.73;34.90
27729;BME280;15126;42.186;24.340;2023-03-19T12:49:23;99574.97;;;18.73;34.57
27729;BME280;15126;42.186;24.340;2023-03-19T12:51:55;99568.50;;;18.82;35.15
27729;BME280;15126;42.186;24.340;2023-03-19T12:54:25;99561.72;;;18.88;35.37
27729;BME280;15126;42.186;24.340;2023-03-19T12:56:56;99559.75;;;18.94;35.97
27729;BME280;15126;42.186;24.340;2023-03-19T12:59:29;99541.91;;;18.88;35.84
27729;BME280;15126;42.186;24.340;2023-03-19T13:02:02;99555.09;;;18.91;35.05
27729;BME280;15126;42.186;24.340;2023-03-19T13:04:39;99554.72;;;18.98;34.54
27729;BME280;15126;42.186;24.340;2023-03-19T13:07:14;99538.53;;;18.75;35.67
27729;BME280;15126;42.186;24.340;2023-03-19T13:09:48;99550.44;;;18.79;35.20
27729;BME280;15126;42.186;24.340;2023-03-19T13:12:20;99537.91;;;18.80;35.70